El Centro Naf Airport El Centro US
ICAO: KNJK
IATA: NJK
Category: Medium
Scheduled Services: No

Elevation: -42 ft
TransAlt. 18000 ft.

Airport Communications:
ATIS:26.927
CLNC DEL:34.02
GND:121.9
PMSV METRO:34.83
TWR:119.1

KNJK Zoom In..

Runways:

(A) RW 08 length 9503 ft width 200 ft
---- / hdg 77

(B) RW 12 length 6824 ft width 200 ft
---- / hdg 122

(C) RW 26 length 9503 ft width 200 ft
---- / hdg 257

(D) RW 30 length 6824 ft width 200 ft
---- / hdg 302

Location; KNJK
Day. 04 / Time. 13.56 Zulu
* Altimeter: 29.81
* Temperature: 14° c. 57.2°f.
* Wind from: VRB° Speed 03 kn.
Dewpoint: 01° c.
Visibility: 10 Statute Miles.
Clouds: Clear (automated report).

KNJK 041356Z VRB03KT 10SM CLR 14/01 A2981 RMK AO2 SLP109 T01440006


Wind From VRB°
Speed 03 kn.

 
 
jpsmedia worldairports.se 2020   terms of use